Time;durP1;ratioP1;P1;durP2;ratioP2;P2;SDS_P1;SDS_P2;PMS_P1;PMS_P2;Temp;Humidity;BMP_temperature;BMP_pressure;BME280_temperature;BME280_humidity;BME280_pressure;Samples;Min_cycle;Max_cycle;Signal;HPM_P1;HPM_P2
2024/04/18 00:01:38;;;;;;;13.50;5.67;;;;;;;6.03;100.00;100067.45;5079740;56;1138511;-79
2024/04/18 00:06:44;;;;;;;9.20;5.47;;;;;;;5.96;100.00;100071.78;5099905;56;1138868;-78
2024/04/18 00:11:50;;;;;;;7.27;4.30;;;;;;;5.75;100.00;100077.58;5080480;56;1136629;-78
2024/04/18 00:16:55;;;;;;;8.97;4.30;;;;;;;5.43;100.00;100081.79;5018646;57;1136597;-78
2024/04/18 00:22:03;;;;;;;6.20;3.53;;;;;;;5.37;100.00;100085.25;5016722;58;1138758;-78
2024/04/18 00:27:08;;;;;;;5.27;4.20;;;;;;;5.26;100.00;100082.84;4996951;57;1138960;-77
2024/04/18 00:32:15;;;;;;;9.28;4.42;;;;;;;5.14;100.00;100079.69;5067518;56;1136303;-78
2024/04/18 00:37:38;;;;;;;6.93;4.30;;;;;;;5.14;100.00;100078.38;5079910;57;1137033;-78
2024/04/18 00:42:44;;;;;;;8.40;5.10;;;;;;;5.09;100.00;100074.34;5099405;56;1136322;-78
2024/04/18 00:47:50;;;;;;;11.07;4.57;;;;;;;5.07;100.00;100067.88;5078729;56;1136974;-78
2024/04/18 00:52:55;;;;;;;10.83;4.00;;;;;;;4.89;100.00;100077.72;5079549;56;1138624;-78
2024/04/18 00:58:04;;;;;;;6.47;4.17;;;;;;;4.52;100.00;100082.20;5099834;56;1138778;-79
2024/04/18 01:03:11;;;;;;;7.90;3.93;;;;;;;4.45;100.00;100083.48;5076156;56;1136635;-79
2024/04/18 01:08:17;;;;;;;16.90;5.50;;;;;;;4.57;100.00;100086.70;5079735;56;1138611;-78
2024/04/18 01:13:24;;;;;;;8.18;4.85;;;;;;;4.67;100.00;100089.61;5068326;56;1138806;-78
2024/04/18 01:18:47;;;;;;;10.90;4.60;;;;;;;4.77;100.00;100086.33;5116131;55;1136921;-78
2024/04/18 01:23:53;;;;;;;8.73;4.67;;;;;;;4.43;100.00;100087.50;5099520;56;1138839;-79
2024/04/18 01:28:58;;;;;;;9.50;5.53;;;;;;;4.23;100.00;100093.08;5088268;56;1136780;-78
2024/04/18 01:34:06;;;;;;;12.03;5.17;;;;;;;4.31;100.00;100093.92;5058395;56;1136275;-78
2024/04/18 01:39:12;;;;;;;10.53;5.90;;;;;;;4.37;100.00;100094.42;5052148;56;1138634;-79
2024/04/18 01:44:17;;;;;;;6.90;4.08;;;;;;;4.17;100.00;100103.43;5061756;56;1138381;-78
2024/04/18 01:49:42;;;;;;;8.00;3.73;;;;;;;3.99;100.00;100109.71;4891612;57;1136847;-78
2024/04/18 01:54:48;;;;;;;8.60;4.03;;;;;;;4.13;100.00;100112.38;4908176;57;1136795;-79
2024/04/18 01:59:55;;;;;;;8.10;4.63;;;;;;;4.31;100.00;100105.24;4888931;57;1136643;-78
2024/04/18 02:05:00;;;;;;;7.23;4.33;;;;;;;4.20;100.00;100116.81;4891865;58;1136766;-78
2024/04/18 02:10:21;;;;;;;8.03;4.40;;;;;;;3.90;100.00;100123.33;4752939;59;1136763;-78
2024/04/18 02:15:39;;;;;;;8.13;4.33;;;;;;;3.64;100.00;100126.56;4758876;59;1136665;-78
2024/04/18 02:20:53;;;;;;;10.55;4.35;;;;;;;3.71;100.00;100123.51;4832083;57;1136701;-78
2024/04/18 02:25:59;;;;;;;16.97;8.27;;;;;;;3.94;100.00;100129.23;4944746;57;1138679;-78
2024/04/18 02:31:04;;;;;;;25.20;10.73;;;;;;;4.11;100.00;100131.75;5015182;56;1138670;-78
2024/04/18 02:36:13;;;;;;;24.27;10.43;;;;;;;4.21;100.00;100130.27;5034136;56;1140780;-80
2024/04/18 02:41:18;;;;;;;29.77;11.50;;;;;;;4.27;100.00;100136.48;4930399;57;1140929;-79
2024/04/18 02:46:27;;;;;;;16.87;7.58;;;;;;;4.27;100.00;100133.86;4944468;57;1140915;-78
2024/04/18 02:51:49;;;;;;;;;;;;;;;4.14;100.00;100137.62;4965374;57;1138600;-78
2024/04/18 02:56:56;;;;;;;50.67;15.37;;;;;;;4.11;100.00;100136.98;4952413;57;973912;-78
2024/04/18 03:02:04;;;;;;;33.27;12.47;;;;;;;4.11;100.00;100132.59;4944439;57;1138841;-78
2024/04/18 03:07:09;;;;;;;32.23;11.63;;;;;;;4.20;100.00;100134.66;4922624;57;1140581;-78
2024/04/18 03:12:17;;;;;;;27.42;11.12;;;;;;;4.28;100.00;100140.75;4929158;58;1140793;-78
2024/04/18 03:17:23;;;;;;;35.30;14.97;;;;;;;4.29;100.00;100138.98;4930293;57;1140927;-78
2024/04/18 03:22:42;;;;;;;33.07;14.13;;;;;;;4.20;100.00;100145.14;4917049;57;1140921;-78
2024/04/18 03:27:47;;;;;;;24.97;12.70;;;;;;;4.20;100.00;100150.38;4970558;57;1141225;-78
2024/04/18 03:32:53;;;;;;;30.23;11.47;;;;;;;4.19;100.00;100147.84;4950535;56;1141006;-78
2024/04/18 03:38:00;;;;;;;21.87;9.37;;;;;;;4.22;100.00;100154.21;4990841;56;1140788;-77
2024/04/18 03:43:06;;;;;;;28.80;11.47;;;;;;;4.06;100.00;100160.78;4971662;56;1138846;-78
2024/04/18 03:48:12;;;;;;;36.60;12.43;;;;;;;4.07;100.00;100162.94;5051250;56;1142922;-78
2024/04/18 03:53:25;;;;;;;27.77;10.63;;;;;;;4.20;100.00;100171.31;5051849;56;1140840;-78
2024/04/18 03:58:49;;;;;;;107.17;33.90;;;;;;;4.35;100.00;100176.13;5062721;56;1140473;-78
2024/04/18 04:03:56;;;;;;;65.70;24.00;;;;;;;4.42;100.00;100180.56;4969925;58;1142834;-78
2024/04/18 04:09:03;;;;;;;55.33;19.77;;;;;;;4.46;100.00;100184.20;4966493;57;1140856;-77
2024/04/18 04:14:11;;;;;;;23.17;11.80;;;;;;;4.49;100.00;100193.66;4990029;58;1140830;-78
2024/04/18 04:19:17;;;;;;;36.87;15.23;;;;;;;4.53;100.00;100196.49;4953154;58;1140986;-77
2024/04/18 04:24:26;;;;;;;24.35;12.98;;;;;;;4.59;100.00;100200.89;4990407;57;1140992;-77
2024/04/18 04:29:33;;;;;;;6.20;3.80;;;;;;;4.64;100.00;100201.09;5014648;57;1155613;-78
2024/04/18 04:34:38;;;;;;;6.30;3.90;;;;;;;4.64;100.00;100210.27;4996413;57;1139035;-78
2024/04/18 04:39:47;;;;;;;12.78;4.40;;;;;;;4.59;100.00;100210.52;4971471;56;1136907;-78
2024/04/18 04:44:53;;;;;;;9.10;4.37;;;;;;;4.55;100.00;100218.20;5077455;55;1138804;-81
2024/04/18 04:50:08;;;;;;;12.07;5.63;;;;;;;4.46;100.00;100221.33;5078718;55;1136844;-83
2024/04/18 04:55:14;;;;;;;14.57;6.63;;;;;;;4.41;100.00;100231.24;5047319;56;1138848;-77
2024/04/18 05:00:20;;;;;;;7.27;3.67;;;;;;;4.44;100.00;100232.34;5042661;56;1138757;-83
2024/04/18 05:05:34;;;;;;;9.07;4.43;;;;;;;4.49;100.00;100239.48;5118234;56;1136565;-78
2024/04/18 05:10:46;;;;;;;9.93;4.53;;;;;;;4.39;100.00;100246.19;5091397;56;1136577;-82
2024/04/18 05:15:52;;;;;;;10.13;4.33;;;;;;;4.38;100.00;100250.58;5124321;56;1136611;-84
2024/04/18 05:21:09;;;;;;;6.50;3.30;;;;;;;4.38;100.00;100259.74;5096655;56;1138811;-83
2024/04/18 05:26:16;;;;;;;13.08;4.60;;;;;;;4.46;100.00;100268.00;5042060;56;1138834;-80
2024/04/18 05:31:22;;;;;;;14.30;5.47;;;;;;;4.52;100.00;100271.59;5010053;56;1141019;-82
2024/04/18 05:36:27;;;;;;;25.63;10.47;;;;;;;4.55;100.00;100272.73;4910631;57;1141961;-83
2024/04/18 05:41:36;;;;;;;10.37;5.57;;;;;;;4.58;100.00;100280.89;4986718;56;1140758;-84
2024/04/18 05:46:43;;;;;;;71.30;34.73;;;;;;;4.64;100.00;100285.76;4932967;57;1138657;-88
2024/04/18 05:51:49;;;;;;;18.43;8.33;;;;;;;4.71;100.00;100287.11;4922014;57;1244342;-81
2024/04/18 05:57:08;;;;;;;5.60;3.97;;;;;;;4.87;100.00;100283.99;5010854;57;1139197;-83
2024/04/18 06:02:28;;;;;;;13.70;5.03;;;;;;;5.11;100.00;100286.95;4971054;57;1138750;-80
2024/04/18 06:07:34;;;;;;;5.72;3.85;;;;;;;5.24;100.00;100285.28;4969348;56;1138938;-82
2024/04/18 06:12:39;;;;;;;5.55;2.65;;;;;;;5.42;100.00;100274.64;4962249;58;1136728;-79
2024/04/18 06:17:45;;;;;;;7.03;3.80;;;;;;;5.44;100.00;100278.02;4917629;57;1136840;-82
2024/04/18 06:22:50;;;;;;;5.95;2.55;;;;;;;5.55;100.00;100279.52;4941224;56;1138858;-81
2024/04/18 06:28:01;;;;;;;5.35;3.92;;;;;;;5.78;100.00;100276.81;4895851;57;1136492;-81
2024/04/18 06:33:06;;;;;;;7.03;3.20;;;;;;;5.92;100.00;100286.86;4952129;58;1136780;-81
2024/04/18 06:38:12;;;;;;;4.47;3.10;;;;;;;5.98;100.00;100288.24;4938452;56;1139188;-79
2024/04/18 06:43:18;;;;;;;5.45;3.12;;;;;;;6.28;100.00;100294.19;5046762;56;1136772;-82
2024/04/18 06:48:24;;;;;;;5.93;3.00;;;;;;;6.17;100.00;100308.48;5024575;56;1136852;-81
2024/04/18 06:53:29;;;;;;;3.70;1.50;;;;;;;6.17;100.00;100308.48;5033274;56;1136807;-81
2024/04/18 06:58:35;;;;;;;4.80;2.02;;;;;;;6.24;100.00;100316.36;5091650;56;1138877;-79
2024/04/18 07:03:40;;;;;;;4.90;2.20;;;;;;;5.99;100.00;100324.91;5046579;56;1136594;-82
2024/04/18 07:08:48;;;;;;;3.17;1.07;;;;;;;5.84;100.00;100332.84;5120266;56;1136502;-79
2024/04/18 07:13:55;;;;;;;1.57;1.40;;;;;;;5.82;100.00;100328.99;5090044;56;1136751;-81
2024/04/18 07:19:09;;;;;;;1.73;1.13;;;;;;;5.83;100.00;100329.37;5055634;55;1136662;-81
2024/04/18 07:24:16;;;;;;;1.60;1.50;;;;;;;5.83;100.00;100328.06;4885921;57;1136741;-83
2024/04/18 07:29:22;;;;;;;3.43;2.43;;;;;;;5.81;100.00;100337.80;4955300;57;1136709;-80
2024/04/18 07:34:28;;;;;;;2.33;1.35;;;;;;;5.81;100.00;100337.80;4995139;57;1136621;-81
2024/04/18 07:39:33;;;;;;;3.20;2.08;;;;;;;5.82;100.00;100338.17;4995342;57;1136478;-80
2024/04/18 07:44:42;;;;;;;4.23;1.40;;;;;;;5.82;100.00;100343.89;4958155;57;1136717;-81
2024/04/18 07:49:48;;;;;;;6.95;2.83;;;;;;;5.93;100.00;100349.39;4966149;57;1136776;-80
2024/04/18 07:54:53;;;;;;;4.73;3.20;;;;;;;5.95;100.00;100346.20;4980172;57;1136833;-80
2024/04/18 07:59:59;;;;;;;2.03;1.87;;;;;;;6.00;100.00;100350.22;4977386;57;1136764;-81
2024/04/18 08:05:04;;;;;;;2.30;2.10;;;;;;;6.02;100.00;100350.59;4924072;58;1138963;-78
2024/04/18 08:10:10;;;;;;;4.28;2.58;;;;;;;5.99;100.00;100355.09;4968858;57;1136591;-79
2024/04/18 08:15:16;;;;;;;4.00;2.30;;;;;;;6.10;100.00;100361.02;5032597;56;1136602;-80
2024/04/18 08:20:21;;;;;;;6.43;2.37;;;;;;;6.09;100.00;100360.64;4961473;57;1136492;-80
2024/04/18 08:25:27;;;;;;;2.30;2.10;;;;;;;6.21;100.00;100354.63;5058085;56;1138677;-80
2024/04/18 08:30:33;;;;;;;2.57;2.30;;;;;;;6.37;100.00;100356.30;4989822;56;1138816;-81
2024/04/18 08:35:39;;;;;;;3.33;2.40;;;;;;;6.59;100.00;100353.98;5053547;57;1136681;-82
2024/04/18 08:40:46;;;;;;;3.70;2.43;;;;;;;6.67;100.00;100366.17;5010603;56;1136545;-80
2024/04/18 08:45:52;;;;;;;4.63;3.00;;;;;;;6.63;100.00;100354.16;5060882;55;1137443;-78
2024/04/18 08:51:00;;;;;;;10.10;5.03;;;;;;;6.59;100.00;100361.39;5042422;55;1136650;-78
2024/04/18 08:56:09;;;;;;;9.27;3.90;;;;;;;6.60;100.00;100364.86;5034005;56;1138964;-81
2024/04/18 09:01:15;;;;;;;4.93;3.67;;;;;;;6.52;100.00;100361.89;5053009;57;1136600;-79
2024/04/18 09:06:21;;;;;;;3.47;3.17;;;;;;;6.38;100.00;100371.95;4993110;57;1136887;-82
2024/04/18 09:11:27;;;;;;;5.53;3.63;;;;;;;6.37;100.00;100369.42;4980407;56;1136688;-80
2024/04/18 09:16:33;;;;;;;3.10;2.80;;;;;;;6.38;100.00;100369.80;5087776;56;1136571;-80
2024/04/18 09:21:38;;;;;;;5.73;3.37;;;;;;;6.26;100.00;100387.17;5087800;55;1136796;-79
2024/04/18 09:26:44;;;;;;;4.50;4.10;;;;;;;6.17;100.00;100384.62;5094070;55;1138672;-79
2024/04/18 09:31:51;;;;;;;3.27;2.87;;;;;;;6.33;100.00;100388.47;5061443;56;1138703;-80
2024/04/18 09:36:58;;;;;;;5.03;3.20;;;;;;;6.52;100.00;100385.07;5014529;56;1137023;-80
2024/04/18 09:42:40;;;;;;;4.62;3.08;;;;;;;6.67;100.00;100382.78;5057280;56;1136285;-80
2024/04/18 09:47:47;;;;;;;2.60;2.40;;;;;;;6.79;100.00;100381.62;4972687;55;1138956;-79
2024/04/18 09:52:54;;;;;;;3.13;2.20;;;;;;;7.15;100.00;100369.20;5109781;56;1136972;-79
2024/04/18 09:58:00;;;;;;;2.60;2.40;;;;;;;7.15;100.00;100369.20;5105834;56;1136830;-82
2024/04/18 10:03:07;;;;;;;3.40;3.10;;;;;;;7.14;100.00;100378.03;5046623;56;1136730;-82
2024/04/18 10:08:13;;;;;;;2.30;2.20;;;;;;;7.25;100.00;100361.91;5077801;56;1136876;-79
2024/04/18 10:13:24;;;;;;;3.13;2.67;;;;;;;7.33;100.00;100357.47;5039255;56;1136464;-79
2024/04/18 10:18:35;;;;;;;2.47;2.30;;;;;;;7.66;100.00;100355.17;5054868;56;1136974;-90
2024/04/18 10:23:55;;;;;;;2.15;1.95;;;;;;;8.29;100.00;100346.38;4933043;57;1136771;-82
2024/04/18 10:29:00;;;;;;;5.00;4.23;;;;;;;8.59;100.00;100348.66;4883418;58;1138508;-83
2024/04/18 10:34:06;;;;;;;2.20;1.63;;;;;;;8.45;100.00;100361.98;4883987;58;1138735;-82
2024/04/18 10:39:15;;;;;;;3.50;2.37;;;;;;;8.00;100.00;100370.81;4903170;58;1136568;-85
2024/04/18 10:44:24;;;;;;;2.47;2.03;;;;;;;7.43;100.00;100370.84;4870755;58;1136838;-83
2024/04/18 10:49:29;;;;;;;3.58;2.62;;;;;;;7.10;100.00;100367.33;4855868;58;1138477;-80
2024/04/18 10:54:36;;;;;;;2.80;2.60;;;;;;;7.21;100.00;100359.58;5070339;56;1139061;-82
2024/04/18 10:59:46;;;;;;;2.25;1.65;;;;;;;7.57;100.00;100353.64;4955615;56;1138746;-78
2024/04/18 11:04:52;;;;;;;0.97;0.97;;;;;;;8.03;100.00;100364.50;4985103;56;1138822;-78
2024/04/18 11:09:57;;;;;;;4.77;0.80;;;;;;;7.64;100.00;100368.06;4907804;56;1138419;-83
2024/04/18 11:15:03;;;;;;;1.50;1.27;;;;;;;7.17;100.00;100374.73;4890138;57;1136692;-79
2024/04/18 11:20:14;;;;;;;2.77;1.30;;;;;;;6.78;100.00;100376.84;4895652;57;1136478;-79
2024/04/18 11:25:20;;;;;;;1.27;1.17;;;;;;;6.82;100.00;100374.39;4872845;57;1136821;-80
2024/04/18 11:30:28;;;;;;;0.50;0.50;;;;;;;7.34;100.00;100377.06;4986660;56;1138782;-84
2024/04/18 11:35:34;;;;;;;1.40;1.30;;;;;;;7.62;100.00;100378.72;4949075;58;1136730;-80
2024/04/18 11:40:41;;;;;;;1.03;0.90;;;;;;;8.18;100.00;100384.50;4890933;56;1136966;-83
2024/04/18 11:45:47;;;;;;;2.77;2.03;;;;;;;8.59;100.00;100389.98;4850028;57;1139004;-82
2024/04/18 11:50:52;;;;;;;2.07;1.90;;;;;;;8.71;100.00;100379.40;4850858;57;1138743;-81
2024/04/18 11:55:58;;;;;;;13.33;7.60;;;;;;;8.58;100.00;100368.05;4941304;57;1138846;-79
2024/04/18 12:01:08;;;;;;;3.13;2.10;;;;;;;8.53;100.00;100362.29;4968080;57;1138742;-81
2024/04/18 12:06:16;;;;;;;2.17;1.30;;;;;;;8.53;100.00;100358.34;4939206;57;1136902;-82
2024/04/18 12:11:24;;;;;;;2.77;1.40;;;;;;;8.68;100.00;100356.39;4938762;57;1136669;-83
2024/04/18 12:16:31;;;;;;;1.93;1.27;;;;;;;8.49;100.00;100358.66;4888875;58;1136901;-82
2024/04/18 12:21:38;;;;;;;2.57;2.00;;;;;;;8.31;100.00;100358.13;4885878;58;1136557;-79
2024/04/18 12:26:45;;;;;;;3.52;2.15;;;;;;;8.15;100.00;100355.73;4954057;57;1136889;-83
2024/04/18 12:31:53;;;;;;;1.67;1.37;;;;;;;8.18;100.00;100350.26;5018985;56;1136676;-82
2024/04/18 12:36:59;;;;;;;4.10;2.53;;;;;;;8.17;100.00;100359.11;5061846;57;1136756;-80
2024/04/18 12:42:05;;;;;;;2.02;1.82;;;;;;;8.22;100.00;100357.00;4903731;57;1136876;-82
2024/04/18 12:47:12;;;;;;;2.37;1.40;;;;;;;8.32;100.00;100358.06;4829800;58;1136728;-83
2024/04/18 12:52:23;;;;;;;2.33;1.70;;;;;;;8.46;100.00;100355.76;4915603;57;1137005;-80
2024/04/18 12:57:31;;;;;;;2.67;1.25;;;;;;;8.51;100.00;100356.28;4946234;57;1136750;-82
2024/04/18 13:02:44;;;;;;;2.10;1.95;;;;;;;8.62;100.00;100360.77;4897662;57;1136642;-80
2024/04/18 13:07:49;;;;;;;8.90;2.85;;;;;;;8.83;100.00;100366.30;5005288;56;1136762;-81
2024/04/18 13:12:57;;;;;;;5.27;2.40;;;;;;;9.15;100.00;100366.11;5044101;57;1136822;-80
2024/04/18 13:18:12;;;;;;;11.93;4.20;;;;;;;9.23;100.00;100365.52;4932755;57;1136871;-82
2024/04/18 13:23:19;;;;;;;8.70;3.50;;;;;;;9.25;100.00;100364.93;4923050;57;1138777;-81
2024/04/18 13:28:25;;;;;;;9.05;4.80;;;;;;;9.41;100.00;100359.72;4996037;58;1136624;-81
2024/04/18 13:33:51;;;;;;;;;;;;;;;9.56;100.00;100362.99;4939495;57;1136593;-79
2024/04/18 13:38:54;;;;;;;17.93;11.13;;;;;;;9.50;100.00;100364.77;4925404;57;973932;-80
2024/04/18 13:44:02;;;;;;;17.13;6.93;;;;;;;9.30;100.00;100361.00;4923802;57;1138894;-80
2024/04/18 13:49:09;;;;;;;7.27;3.40;;;;;;;9.15;100.00;100361.67;5009986;58;1138668;-80
2024/04/18 13:54:29;;;;;;;6.23;3.10;;;;;;;9.04;100.00;100359.44;4862565;59;1136739;-79
2024/04/18 13:59:35;;;;;;;4.75;3.17;;;;;;;8.82;100.00;100354.91;5037659;56;1136625;-80
2024/04/18 14:04:40;;;;;;;476.13;279.87;;;;;;;8.98;100.00;100350.67;5075364;56;1136459;-80
2024/04/18 14:09:58;;;;;;;27.03;16.77;;;;;;;9.48;100.00;100344.23;4939239;56;1144885;-81
2024/04/18 14:15:17;;;;;;;1.57;1.47;;;;;;;9.86;100.00;100339.52;4914526;57;1142890;-80
2024/04/18 14:20:20;;;;;;;3.45;2.70;;;;;;;10.08;100.00;100334.70;4935225;57;1138828;-80
2024/04/18 14:25:28;;;;;;;3.37;2.53;;;;;;;10.37;100.00;100344.36;4954225;56;1141219;-80
2024/04/18 14:30:41;;;;;;;;;;;;;;;10.25;100.00;100343.14;4907721;57;1141193;-81
2024/04/18 14:35:49;;;;;;;4.25;2.15;;;;;;;10.20;100.00;100348.33;5000258;57;977994;-83
2024/04/18 14:40:55;;;;;;;6.10;2.67;;;;;;;10.18;100.00;100340.12;5087148;56;1138793;-81
2024/04/18 14:46:01;;;;;;;4.70;2.43;;;;;;;10.10;100.00;100343.36;5037795;56;1141097;-80
2024/04/18 14:51:24;;;;;;;4.37;2.35;;;;;;;10.14;100.00;100347.92;5022901;56;1140819;-80
2024/04/18 14:56:29;;;;;;;2.83;1.87;;;;;;;9.96;100.00;100343.59;5007322;57;1140803;-80
2024/04/18 15:01:38;;;;;;;2.23;1.53;;;;;;;9.76;100.00;100353.08;5076460;56;1138410;-80
2024/04/18 15:06:44;;;;;;;6.90;2.27;;;;;;;9.66;100.00;100360.00;5079571;56;1138731;-80
2024/04/18 15:11:49;;;;;;;4.62;1.70;;;;;;;9.57;100.00;100356.76;5079077;57;1138484;-80
2024/04/18 15:16:55;;;;;;;4.33;1.73;;;;;;;9.76;100.00;100352.23;5097716;56;1138523;-80
2024/04/18 15:22:01;;;;;;;3.13;2.17;;;;;;;9.87;100.00;100353.56;5077903;56;1138650;-80
2024/04/18 15:27:09;;;;;;;2.95;1.70;;;;;;;10.09;100.00;100346.95;4995180;57;1138881;-81
2024/04/18 15:32:14;;;;;;;4.90;2.70;;;;;;;10.38;100.00;100343.40;5053249;57;1141285;-81
2024/04/18 15:37:23;;;;;;;5.40;3.17;;;;;;;10.52;100.00;100344.45;5074150;56;1140757;-82
2024/04/18 15:42:38;;;;;;;6.27;3.10;;;;;;;10.44;100.00;100344.21;5078732;57;1141090;-81
2024/04/18 15:47:45;;;;;;;4.75;3.12;;;;;;;10.23;100.00;100349.06;5022171;56;1140826;-84
2024/04/18 15:52:56;;;;;;;9.77;3.37;;;;;;;9.97;100.00;100357.17;4995611;57;1140862;-85
2024/04/18 15:58:08;;;;;;;7.03;3.83;;;;;;;9.81;100.00;100357.98;5060757;56;1138769;-82
2024/04/18 16:03:17;;;;;;;5.80;3.27;;;;;;;9.90;100.00;100340.12;5098986;56;1138398;-83
2024/04/18 16:08:33;;;;;;;3.60;2.57;;;;;;;10.10;100.00;100349.96;5078908;56;1138409;-83
2024/04/18 16:13:39;;;;;;;2.95;2.45;;;;;;;10.19;100.00;100344.01;5010471;57;1146351;-83
2024/04/18 16:18:47;;;;;;;2.60;1.70;;;;;;;10.25;100.00;100349.27;5050434;57;1140865;-84
2024/04/18 16:24:11;;;;;;;3.33;2.40;;;;;;;10.32;97.37;100348.31;5078996;56;1140988;-83
2024/04/18 16:29:16;;;;;;;2.27;2.07;;;;;;;10.37;97.63;100356.73;5099977;56;1139020;-84
2024/04/18 16:34:22;;;;;;;3.40;2.20;;;;;;;10.31;96.66;100360.70;5107884;56;1138781;-85
2024/04/18 16:39:29;;;;;;;6.10;2.30;;;;;;;10.28;95.09;100361.41;5120707;56;1138636;-83
2024/04/18 16:44:36;;;;;;;6.70;3.27;;;;;;;10.23;95.79;100361.80;5098681;56;1139043;-83
2024/04/18 16:49:47;;;;;;;8.25;2.75;;;;;;;10.28;97.38;100366.69;5024288;57;1138802;-86
2024/04/18 16:54:53;;;;;;;4.90;2.35;;;;;;;10.23;95.89;100370.20;5118186;56;1138415;-86
2024/04/18 17:00:00;;;;;;;24.47;6.83;;;;;;;10.10;95.87;100376.86;5104338;56;1138444;-88
2024/04/18 17:05:12;;;;;;;5.70;3.27;;;;;;;9.95;96.45;100384.66;5107460;56;1140505;-82
2024/04/18 17:10:13;;;;;;;5.50;3.20;;;;;;;9.86;98.47;100394.15;5053562;56;1136419;-83
2024/04/18 17:15:20;;;;;;;7.53;3.63;;;;;;;9.73;100.00;100388.96;5058245;56;1136691;-82
2024/04/18 17:20:26;;;;;;;7.92;4.65;;;;;;;9.70;100.00;100386.55;4998136;56;1138530;-82
2024/04/18 17:25:31;;;;;;;6.70;3.67;;;;;;;9.71;100.00;100387.39;4986273;57;1138649;-82
2024/04/18 17:30:37;;;;;;;5.97;3.80;;;;;;;9.67;100.00;100392.53;5033932;56;1136578;-82
2024/04/18 17:35:44;;;;;;;10.38;4.40;;;;;;;9.59;100.00;100393.61;5034588;56;1136510;-84
2024/04/18 17:40:49;;;;;;;83.03;32.98;;;;;;;9.47;100.00;100400.66;5050961;56;1139060;-82
2024/04/18 17:45:55;;;;;;;8.17;3.63;;;;;;;9.37;100.00;100405.77;5059762;56;1140835;-83
2024/04/18 17:51:00;;;;;;;12.87;5.90;;;;;;;9.16;100.00;100416.60;5098099;56;1136515;-83
2024/04/18 17:56:06;;;;;;;19.57;7.83;;;;;;;8.85;100.00;100420.63;5117845;56;1138934;-82
2024/04/18 18:01:12;;;;;;;13.97;5.00;;;;;;;8.57;100.00;100424.84;5101768;56;1138576;-82
2024/04/18 18:06:19;;;;;;;19.93;5.20;;;;;;;8.36;100.00;100427.20;5096442;56;1138673;-82
2024/04/18 18:11:25;;;;;;;8.95;4.60;;;;;;;8.21;100.00;100422.97;5108203;56;1138751;-83
2024/04/18 18:16:30;;;;;;;6.80;3.30;;;;;;;8.08;100.00;100435.67;5128132;56;1136405;-84
2024/04/18 18:21:37;;;;;;;6.17;3.62;;;;;;;7.94;100.00;100446.78;5092689;56;1136347;-82
2024/04/18 18:26:43;;;;;;;9.27;3.63;;;;;;;7.78;100.00;100445.66;5099890;56;1136830;-81
2024/04/18 18:31:48;;;;;;;6.37;3.10;;;;;;;7.61;100.00;100436.72;5043384;57;1136439;-81
2024/04/18 18:36:54;;;;;;;8.60;3.87;;;;;;;7.51;100.00;100440.42;4891108;57;1136607;-80
2024/04/18 18:41:59;;;;;;;11.83;7.67;;;;;;;7.43;100.00;100437.94;4899929;57;1136495;-80
2024/04/18 18:47:05;;;;;;;65.07;36.33;;;;;;;7.34;100.00;100443.31;4876483;57;1138832;-80
2024/04/18 18:52:28;;;;;;;13.83;7.33;;;;;;;7.33;100.00;100445.59;4914743;57;1140819;-80
2024/04/18 18:57:34;;;;;;;3.07;2.20;;;;;;;7.30;100.00;100436.11;4967473;56;1138764;-81
2024/04/18 19:02:40;;;;;;;4.50;2.07;;;;;;;7.32;100.00;100442.59;4933410;58;1136651;-81
2024/04/18 19:07:45;;;;;;;4.80;2.30;;;;;;;7.34;100.00;100433.63;4949055;58;1136676;-81
2024/04/18 19:12:51;;;;;;;5.22;2.50;;;;;;;7.43;100.00;100436.15;4949244;57;1138765;-82
2024/04/18 19:17:57;;;;;;;33.53;13.33;;;;;;;7.53;100.00;100444.27;4968026;57;1138891;-81
2024/04/18 19:23:02;;;;;;;31.43;13.20;;;;;;;7.67;100.00;100448.98;4947451;57;1142756;-81
2024/04/18 19:28:08;;;;;;;19.27;8.50;;;;;;;7.81;100.00;100443.27;5010103;57;1142914;-81
2024/04/18 19:33:13;;;;;;;13.03;6.90;;;;;;;7.71;100.00;100452.27;4997548;57;1138736;-82
2024/04/18 19:38:19;;;;;;;7.13;4.83;;;;;;;7.35;100.00;100445.00;5041271;57;1138539;-80
2024/04/18 19:43:28;;;;;;;10.27;2.47;;;;;;;7.20;100.00;100438.95;4988607;57;1136669;-82
2024/04/18 19:48:34;;;;;;;3.22;2.20;;;;;;;7.11;100.00;100443.50;5053332;57;1138976;-81
2024/04/18 19:53:39;;;;;;;2.63;2.43;;;;;;;6.96;100.00;100442.70;5053856;57;1136925;-81
2024/04/18 19:58:45;;;;;;;3.02;2.02;;;;;;;6.92;100.00;100444.30;5002947;57;1136849;-80
2024/04/18 20:03:51;;;;;;;30.85;11.38;;;;;;;7.00;100.00;100435.47;4991628;57;1136976;-82
2024/04/18 20:08:56;;;;;;;57.35;23.38;;;;;;;7.07;100.00;100430.17;5073908;57;1141198;-83
2024/04/18 20:14:02;;;;;;;79.40;28.77;;;;;;;7.09;100.00;100436.65;5035722;57;1140831;-83
2024/04/18 20:19:07;;;;;;;46.47;15.27;;;;;;;7.01;100.00;100430.59;5054201;57;1140730;-83
2024/04/18 20:24:14;;;;;;;115.93;39.63;;;;;;;6.98;100.00;100436.03;5067769;57;1143030;-79
2024/04/18 20:29:38;;;;;;;98.73;35.83;;;;;;;7.01;100.00;100430.11;4976947;57;1144841;-79
2024/04/18 20:34:45;;;;;;;22.63;8.60;;;;;;;6.99;100.00;100426.73;5026899;57;1141190;-79
2024/04/18 20:39:51;;;;;;;10.35;5.60;;;;;;;6.74;100.00;100429.22;5031926;57;1138909;-79
2024/04/18 20:44:56;;;;;;;31.20;11.80;;;;;;;6.42;100.00;100427.28;4968459;57;1138572;-78
2024/04/18 20:50:02;;;;;;;123.47;44.40;;;;;;;6.28;100.00;100415.00;5021232;57;1140909;-79
2024/04/18 20:55:09;;;;;;;35.33;14.87;;;;;;;6.31;100.00;100412.20;4969670;57;1142602;-78
2024/04/18 21:00:15;;;;;;;35.77;15.37;;;;;;;6.25;100.00;100402.55;4939813;58;1140489;-79
2024/04/18 21:05:21;;;;;;;145.93;47.43;;;;;;;6.32;100.00;100409.10;4936744;58;1142720;-78
2024/04/18 21:10:26;;;;;;;84.30;32.17;;;;;;;6.29;100.00;100393.52;4939624;58;1145151;-78
2024/04/18 21:15:32;;;;;;;34.40;13.63;;;;;;;6.32;100.00;100398.59;4959437;58;1142789;-78
2024/04/18 21:20:37;;;;;;;33.27;14.27;;;;;;;6.18;100.00;100392.04;4940056;58;1140812;-78
2024/04/18 21:25:43;;;;;;;145.33;71.17;;;;;;;6.15;100.00;100385.19;4940429;57;1140675;-79
2024/04/18 21:30:54;;;;;;;165.00;101.70;;;;;;;6.21;100.00;100376.95;4959498;58;1142949;-78
2024/04/18 21:35:55;;;;;;;31.23;18.67;;;;;;;6.27;100.00;100375.23;4938019;57;1145192;-78
2024/04/18 21:41:03;;;;;;;46.97;23.10;;;;;;;6.06;100.00;100371.33;4935314;58;1140718;-78
2024/04/18 21:46:08;;;;;;;82.50;51.83;;;;;;;5.84;100.00;100383.55;5006940;57;1140741;-78
2024/04/18 21:51:14;;;;;;;46.13;27.40;;;;;;;5.77;100.00;100381.40;4951916;57;1142923;-78
2024/04/18 21:56:19;;;;;;;16.27;8.60;;;;;;;5.68;100.00;100384.55;4938997;58;1143030;-78
2024/04/18 22:01:25;;;;;;;13.15;7.15;;;;;;;5.68;100.00;100374.91;4939741;58;1140979;-79
2024/04/18 22:06:32;;;;;;;11.23;5.67;;;;;;;5.66;100.00;100367.13;4959558;58;1138453;-78
2024/04/18 22:11:37;;;;;;;13.20;6.67;;;;;;;5.64;100.00;100354.59;4940190;58;1138741;-78
2024/04/18 22:16:44;;;;;;;14.23;5.63;;;;;;;5.49;100.00;100352.87;4940398;58;1138455;-79
2024/04/18 22:21:50;;;;;;;10.08;4.80;;;;;;;5.29;100.00;100344.86;5036078;57;1138678;-78
2024/04/18 22:26:56;;;;;;;8.25;4.55;;;;;;;5.20;100.00;100340.14;5020625;57;1140836;-78
2024/04/18 22:32:02;;;;;;;11.10;6.37;;;;;;;5.15;100.00;100338.27;5021379;57;1138765;-78
2024/04/18 22:37:07;;;;;;;9.43;5.50;;;;;;;5.07;100.00;100338.32;5040813;57;1138817;-78
2024/04/18 22:42:13;;;;;;;11.57;5.97;;;;;;;5.03;100.00;100337.67;5001715;57;1136425;-78
2024/04/18 22:47:19;;;;;;;10.10;5.43;;;;;;;5.00;100.00;100333.07;4972982;57;1138836;-78
2024/04/18 22:52:24;;;;;;;9.50;5.60;;;;;;;4.93;100.00;100322.92;4972027;58;1140778;-78
2024/04/18 22:57:30;;;;;;;11.03;6.87;;;;;;;4.90;100.00;100328.34;4991726;58;1136536;-78
2024/04/18 23:02:35;;;;;;;20.43;5.47;;;;;;;4.91;100.00;100325.25;4971842;58;1138622;-78
2024/04/18 23:07:41;;;;;;;11.03;6.20;;;;;;;4.91;100.00;100323.48;4973008;57;1138815;-79